Time;durP1;ratioP1;P1;durP2;ratioP2;P2;SDS_P1;SDS_P2;PMS_P1;PMS_P2;Temp;Humidity;BMP_temperature;BMP_pressure;BME280_temperature;BME280_humidity;BME280_pressure;Samples;Min_cycle;Max_cycle;Signal;HPM_P1;HPM_P2
2021/07/04 00:01:14;;;;;;;3.60;3.28;;;14.60;99.90;;;;;;4978332;28;20117;-92
2021/07/04 00:03:39;;;;;;;4.82;3.83;;;14.60;99.90;;;;;;4978323;28;20022;-92
2021/07/04 00:06:05;;;;;;;5.65;3.67;;;14.70;99.90;;;;;;4980471;28;20076;-94
2021/07/04 00:08:31;;;;;;;6.50;3.50;;;14.70;99.90;;;;;;4979290;28;20060;-90
2021/07/04 00:11:00;;;;;;;3.97;3.38;;;14.70;99.90;;;;;;4978706;28;20026;-93
2021/07/04 00:13:27;;;;;;;3.88;2.92;;;14.70;99.90;;;;;;4977947;28;20023;-94
2021/07/04 00:15:53;;;;;;;9.38;3.45;;;14.70;99.90;;;;;;4978074;28;20050;-93
2021/07/04 00:18:22;;;;;;;4.72;3.72;;;14.70;99.90;;;;;;4978434;28;20502;-93
2021/07/04 00:20:49;;;;;;;4.20;3.75;;;14.70;99.90;;;;;;4979167;28;20034;-93
2021/07/04 00:23:16;;;;;;;4.95;3.78;;;14.80;99.90;;;;;;4979029;28;20019;-93
2021/07/04 00:25:43;;;;;;;6.45;3.80;;;14.70;99.90;;;;;;4979220;28;20062;-93
2021/07/04 00:28:09;;;;;;;5.63;4.03;;;14.70;99.90;;;;;;4982751;28;20050;-92
2021/07/04 00:30:35;;;;;;;5.90;3.80;;;14.60;99.90;;;;;;5001442;28;20069;-93
2021/07/04 00:33:02;;;;;;;6.75;3.92;;;14.60;99.90;;;;;;5001102;28;20024;-92
2021/07/04 00:35:29;;;;;;;6.75;3.67;;;14.60;99.90;;;;;;4990180;28;20038;-93
2021/07/04 00:37:55;;;;;;;4.43;3.60;;;14.60;99.90;;;;;;4988302;28;20058;-93
2021/07/04 00:40:22;;;;;;;5.60;3.70;;;14.60;99.90;;;;;;4985635;28;20057;-93
2021/07/04 00:42:47;;;;;;;9.45;3.72;;;14.60;99.90;;;;;;4984067;28;20096;-94
2021/07/04 00:45:22;;;;;;;6.72;3.40;;;14.60;99.90;;;;;;4981550;28;20097;-93
2021/07/04 00:47:49;;;;;;;16.90;4.63;;;14.50;99.90;;;;;;4978437;28;20034;-92
2021/07/04 00:50:16;;;;;;;6.13;4.28;;;14.50;99.90;;;;;;4978264;28;20034;-94
2021/07/04 00:52:43;;;;;;;6.20;4.13;;;14.50;99.90;;;;;;4978316;28;20030;-93
2021/07/04 00:55:10;;;;;;;5.97;4.10;;;14.40;99.90;;;;;;4977924;28;20452;-93
2021/07/04 00:57:36;;;;;;;4.70;4.03;;;14.40;99.90;;;;;;4978056;28;20077;-93
2021/07/04 01:00:06;;;;;;;4.30;3.75;;;14.30;99.90;;;;;;4978283;28;20026;-93
2021/07/04 01:02:32;;;;;;;6.45;4.10;;;14.30;99.90;;;;;;4978807;28;20034;-93
2021/07/04 01:04:58;;;;;;;7.97;4.57;;;14.30;99.90;;;;;;4977729;28;20023;-93
2021/07/04 01:07:23;;;;;;;5.25;4.13;;;14.30;99.90;;;;;;4977123;28;20481;-93
2021/07/04 01:09:49;;;;;;;26.70;4.10;;;14.30;99.90;;;;;;4977338;28;20460;-93
2021/07/04 01:12:15;;;;;;;28.02;4.60;;;14.30;99.90;;;;;;4977573;28;20031;-93
2021/07/04 01:14:41;;;;;;;33.22;5.68;;;14.20;99.90;;;;;;4977578;28;20046;-93
2021/07/04 01:17:07;;;;;;;42.05;4.78;;;14.20;99.90;;;;;;4977401;28;20034;-93
2021/07/04 01:19:33;;;;;;;55.80;5.32;;;14.20;99.90;;;;;;4979111;28;20062;-93
2021/07/04 01:22:00;;;;;;;13.57;5.43;;;14.20;99.90;;;;;;4978490;28;20080;-92
2021/07/04 01:24:26;;;;;;;7.65;4.47;;;14.20;99.90;;;;;;4976932;28;20486;-94
2021/07/04 01:26:52;;;;;;;20.88;4.90;;;14.20;99.90;;;;;;4977445;28;20116;-93
2021/07/04 01:29:18;;;;;;;10.25;5.00;;;14.20;99.90;;;;;;4977209;28;20340;-93
2021/07/04 01:31:44;;;;;;;9.05;5.40;;;14.20;99.90;;;;;;4977309;28;20030;-93
2021/07/04 01:34:10;;;;;;;6.80;4.40;;;14.20;99.90;;;;;;4976785;28;20039;-93
2021/07/04 01:36:38;;;;;;;6.78;4.72;;;14.20;99.90;;;;;;4976800;28;20031;-93
2021/07/04 01:39:05;;;;;;;6.50;4.75;;;14.20;99.90;;;;;;4977166;28;20060;-93
2021/07/04 01:41:33;;;;;;;6.10;4.75;;;14.20;99.90;;;;;;4977093;28;20619;-94
2021/07/04 01:43:59;;;;;;;5.90;4.40;;;14.20;99.90;;;;;;4976494;28;20037;-93
2021/07/04 01:46:24;;;;;;;7.60;4.45;;;14.10;99.90;;;;;;4977172;28;20030;-93
2021/07/04 01:48:50;;;;;;;6.97;4.40;;;14.10;99.90;;;;;;4978830;28;20122;-93
2021/07/04 01:51:16;;;;;;;5.65;4.32;;;14.10;99.90;;;;;;4978500;28;20038;-93
2021/07/04 01:53:42;;;;;;;16.00;4.78;;;14.10;99.90;;;;;;4987904;28;20019;-93
2021/07/04 01:56:08;;;;;;;5.93;4.18;;;14.10;99.90;;;;;;4989321;28;20037;-94
2021/07/04 01:58:36;;;;;;;5.10;4.20;;;14.10;99.90;;;;;;4992269;28;20022;-93
2021/07/04 02:01:03;;;;;;;5.25;4.30;;;14.10;99.90;;;;;;5000456;28;20057;-93
2021/07/04 02:03:29;;;;;;;4.80;4.13;;;14.00;99.90;;;;;;5002211;28;20026;-94
2021/07/04 02:05:55;;;;;;;8.27;4.40;;;14.00;99.90;;;;;;4975463;28;20046;-94
2021/07/04 02:08:21;;;;;;;8.68;4.68;;;14.00;99.90;;;;;;4960946;28;20023;-93
2021/07/04 02:10:46;;;;;;;6.53;4.43;;;14.00;99.90;;;;;;4961138;28;20396;-93
2021/07/04 02:13:13;;;;;;;5.22;4.10;;;14.00;99.90;;;;;;4961403;28;20035;-93
2021/07/04 02:15:40;;;;;;;7.60;4.80;;;14.00;99.90;;;;;;4958572;28;20058;-94
2021/07/04 02:18:11;;;;;;;11.55;4.63;;;14.00;99.90;;;;;;4961198;28;20026;-93
2021/07/04 02:20:51;;;;;;;15.57;4.63;;;13.90;99.90;;;;;;4960883;28;20085;-94
2021/07/04 02:23:26;;;;;;;8.75;5.22;;;13.90;99.90;;;;;;4961148;28;20094;-93
2021/07/04 02:25:54;;;;;;;9.48;4.93;;;13.80;99.90;;;;;;4961083;28;20122;-93
2021/07/04 02:28:22;;;;;;;8.88;4.78;;;13.80;99.90;;;;;;4960693;28;20035;-94
2021/07/04 02:30:49;;;;;;;8.25;4.40;;;13.90;99.90;;;;;;4960413;28;20054;-93
2021/07/04 02:33:16;;;;;;;8.25;4.03;;;13.90;99.90;;;;;;4960503;28;20512;-93
2021/07/04 02:35:48;;;;;;;7.22;4.18;;;13.90;99.90;;;;;;4960123;28;20027;-94
2021/07/04 02:38:15;;;;;;;5.97;4.45;;;13.90;99.90;;;;;;4960590;28;20034;-94
2021/07/04 02:40:41;;;;;;;7.07;4.88;;;13.90;99.90;;;;;;4959991;28;20034;-94
2021/07/04 02:43:10;;;;;;;131.95;7.38;;;13.90;99.90;;;;;;4960008;28;20125;-93
2021/07/04 02:45:36;;;;;;;5.32;4.53;;;13.90;99.90;;;;;;4959903;28;20030;-93
2021/07/04 02:48:02;;;;;;;7.13;5.43;;;13.90;99.90;;;;;;4977499;28;20031;-93
2021/07/04 02:50:28;;;;;;;7.72;5.60;;;13.90;99.90;;;;;;4960400;28;20058;-93
2021/07/04 02:52:55;;;;;;;9.90;4.97;;;13.90;99.90;;;;;;4960186;28;20110;-93
2021/07/04 02:55:22;;;;;;;9.25;4.70;;;13.90;99.90;;;;;;4960049;28;20035;-94
2021/07/04 02:57:48;;;;;;;7.30;4.82;;;13.90;99.90;;;;;;4960083;28;20034;-93
2021/07/04 03:00:17;;;;;;;8.45;4.90;;;14.00;99.90;;;;;;4960263;28;20493;-94
2021/07/04 03:02:43;;;;;;;9.38;5.80;;;14.00;99.90;;;;;;4960412;28;20026;-94
2021/07/04 03:05:10;;;;;;;6.72;4.90;;;14.00;99.90;;;;;;4960242;28;20086;-94
2021/07/04 03:07:36;;;;;;;6.82;4.45;;;14.00;99.90;;;;;;4960038;28;20065;-94
2021/07/04 03:10:06;;;;;;;7.47;4.68;;;14.00;99.90;;;;;;4959989;28;20019;-93
2021/07/04 03:12:32;;;;;;;7.93;4.73;;;14.00;99.90;;;;;;4960103;28;20041;-93
2021/07/04 03:14:58;;;;;;;6.85;4.43;;;14.00;99.90;;;;;;4959636;28;20042;-94
2021/07/04 03:17:23;;;;;;;232.77;8.93;;;14.00;99.90;;;;;;4959590;28;20039;-93
2021/07/04 03:19:49;;;;;;;8.32;4.65;;;14.00;99.90;;;;;;4959734;28;20130;-92
2021/07/04 03:22:15;;;;;;;28.35;5.38;;;13.90;99.90;;;;;;4959491;28;20030;-93
2021/07/04 03:24:40;;;;;;;56.45;6.32;;;13.90;99.90;;;;;;4959637;28;20246;-93
2021/07/04 03:27:08;;;;;;;18.10;5.45;;;13.80;99.90;;;;;;4959719;28;20026;-93
2021/07/04 03:29:34;;;;;;;13.98;5.82;;;13.80;99.90;;;;;;4959461;28;20504;-94
2021/07/04 03:32:00;;;;;;;60.45;6.43;;;13.80;99.90;;;;;;4959609;28;20049;-93
2021/07/04 03:34:26;;;;;;;35.72;6.63;;;13.70;99.90;;;;;;4959186;28;20027;-92
2021/07/04 03:36:52;;;;;;;93.07;6.80;;;13.70;99.90;;;;;;4959453;28;20050;-93
2021/07/04 03:39:18;;;;;;;129.45;8.20;;;13.70;99.90;;;;;;4959393;28;20030;-93
2021/07/04 03:41:43;;;;;;;80.60;5.50;;;13.70;99.90;;;;;;4959139;28;20373;-93
2021/07/04 03:44:09;;;;;;;37.88;4.47;;;13.70;99.90;;;;;;4959699;28;20030;-94
2021/07/04 03:46:35;;;;;;;21.85;3.67;;;13.70;99.90;;;;;;4959381;28;20054;-94
2021/07/04 03:49:01;;;;;;;3.72;3.35;;;13.60;99.90;;;;;;4959370;28;20023;-94
2021/07/04 03:51:26;;;;;;;6.18;3.35;;;13.60;99.90;;;;;;4959262;28;20034;-95
2021/07/04 03:53:52;;;;;;;10.32;3.50;;;13.60;99.90;;;;;;4959537;28;20049;-94
2021/07/04 03:56:19;;;;;;;19.73;3.67;;;13.60;99.90;;;;;;4959427;28;20050;-94
2021/07/04 03:58:45;;;;;;;17.45;4.40;;;13.60;99.90;;;;;;4959713;28;20019;-94
2021/07/04 04:01:18;;;;;;;18.48;3.80;;;13.60;99.90;;;;;;4967214;28;20042;-94
2021/07/04 04:03:44;;;;;;;13.30;3.80;;;13.50;99.90;;;;;;4975761;28;20034;-94
2021/07/04 04:06:10;;;;;;;44.00;4.22;;;13.50;99.90;;;;;;4967742;28;20033;-93
2021/07/04 04:08:35;;;;;;;11.15;4.10;;;13.50;99.90;;;;;;4965994;28;20054;-92
2021/07/04 04:11:01;;;;;;;14.55;3.80;;;13.50;99.90;;;;;;4966580;28;20113;-94
2021/07/04 04:13:27;;;;;;;17.40;4.05;;;13.40;99.90;;;;;;4965914;28;20056;-94
2021/07/04 04:15:52;;;;;;;14.85;3.67;;;13.40;99.90;;;;;;4960127;28;20062;-93
2021/07/04 04:18:19;;;;;;;18.98;3.97;;;13.40;99.90;;;;;;4959578;28;20054;-93
2021/07/04 04:20:45;;;;;;;7.70;4.10;;;13.40;99.90;;;;;;4959611;28;20125;-93
2021/07/04 04:23:10;;;;;;;8.07;4.22;;;13.40;99.90;;;;;;4959373;28;20062;-94
2021/07/04 04:25:36;;;;;;;8.40;4.57;;;13.40;99.90;;;;;;4958717;28;20034;-92
2021/07/04 04:28:05;;;;;;;8.23;4.57;;;13.50;99.90;;;;;;4958772;28;20035;-93
2021/07/04 04:30:35;;;;;;;6.93;4.55;;;13.50;99.90;;;;;;4958719;28;20025;-94
2021/07/04 04:33:02;;;;;;;11.35;5.28;;;13.50;99.90;;;;;;4958650;28;20082;-93
2021/07/04 04:35:34;;;;;;;18.52;4.97;;;13.50;99.90;;;;;;4976155;28;20428;-94
2021/07/04 04:37:59;;;;;;;10.30;5.10;;;13.50;99.90;;;;;;4958508;28;20042;-93
2021/07/04 04:40:25;;;;;;;9.75;4.28;;;13.50;99.90;;;;;;4957948;28;20023;-94
2021/07/04 04:42:51;;;;;;;14.77;4.43;;;13.50;99.90;;;;;;4958358;28;20110;-93
2021/07/04 04:45:17;;;;;;;8.80;4.15;;;13.60;99.90;;;;;;4957972;28;20030;-94
2021/07/04 04:47:43;;;;;;;11.57;4.50;;;13.60;99.90;;;;;;4958039;28;20027;-93
2021/07/04 04:50:09;;;;;;;7.32;4.13;;;13.60;99.90;;;;;;4958502;28;20150;-93
2021/07/04 04:52:36;;;;;;;14.50;4.20;;;13.60;99.90;;;;;;4957841;28;20093;-93
2021/07/04 04:55:08;;;;;;;19.10;4.00;;;13.60;99.90;;;;;;4958007;28;20467;-93
2021/07/04 04:57:34;;;;;;;13.32;4.20;;;13.60;99.90;;;;;;4957962;28;20186;-93
2021/07/04 05:00:00;;;;;;;7.25;5.13;;;13.70;99.90;;;;;;4958214;28;20037;-93
2021/07/04 05:02:25;;;;;;;8.02;4.75;;;13.60;99.90;;;;;;4958175;28;20030;-93
2021/07/04 05:04:51;;;;;;;8.57;4.57;;;13.70;99.90;;;;;;4957869;28;20054;-93
2021/07/04 05:07:17;;;;;;;9.35;4.60;;;13.70;99.90;;;;;;4957872;28;20039;-94
2021/07/04 05:09:43;;;;;;;12.32;4.50;;;13.70;99.90;;;;;;4958402;28;20122;-93
2021/07/04 05:12:09;;;;;;;15.10;4.68;;;13.80;99.90;;;;;;4958645;28;20041;-93
2021/07/04 05:14:34;;;;;;;10.15;4.18;;;13.80;99.90;;;;;;4957641;28;20460;-94
2021/07/04 05:17:01;;;;;;;24.00;4.78;;;13.80;99.90;;;;;;4957546;28;20039;-93
2021/07/04 05:19:27;;;;;;;32.33;5.25;;;13.80;99.90;;;;;;4958050;28;20033;-94
2021/07/04 05:21:52;;;;;;;6.68;4.15;;;13.80;99.90;;;;;;4957833;28;20039;-93
2021/07/04 05:24:18;;;;;;;5.47;4.38;;;13.80;99.90;;;;;;4975363;28;20029;-93
2021/07/04 05:26:44;;;;;;;6.07;4.47;;;13.90;99.90;;;;;;4975504;28;20034;-94
2021/07/04 05:29:10;;;;;;;8.07;4.97;;;14.00;99.90;;;;;;4958251;28;20098;-94
2021/07/04 05:31:36;;;;;;;9.35;4.32;;;14.10;99.90;;;;;;4975258;28;20026;-93
2021/07/04 05:34:01;;;;;;;7.72;5.10;;;14.10;99.90;;;;;;4960129;28;20091;-94
2021/07/04 05:36:27;;;;;;;7.80;5.05;;;14.20;99.90;;;;;;4960481;28;20061;-94
2021/07/04 05:38:53;;;;;;;6.22;4.72;;;14.30;99.90;;;;;;4960717;28;20042;-94
2021/07/04 05:41:19;;;;;;;6.97;4.88;;;14.40;99.90;;;;;;4961361;28;20034;-94
2021/07/04 05:43:47;;;;;;;7.00;4.90;;;14.50;99.90;;;;;;4961619;28;20031;-94
2021/07/04 05:46:13;;;;;;;9.48;5.07;;;14.60;99.90;;;;;;4960343;28;20473;-94
2021/07/04 05:48:41;;;;;;;9.85;4.88;;;14.60;99.90;;;;;;4961719;28;20035;-94
2021/07/04 05:51:07;;;;;;;7.22;5.38;;;14.80;99.90;;;;;;4961534;28;20031;-94
2021/07/04 05:53:32;;;;;;;7.22;5.40;;;14.80;99.90;;;;;;4978256;28;20023;-94
2021/07/04 05:55:58;;;;;;;7.95;5.32;;;14.90;99.90;;;;;;4961601;28;20043;-94
2021/07/04 05:58:24;;;;;;;8.65;5.25;;;15.00;99.90;;;;;;4978530;28;20035;-93
2021/07/04 06:00:49;;;;;;;7.00;4.63;;;15.10;99.90;;;;;;4961538;28;20373;-95
2021/07/04 06:03:15;;;;;;;5.60;4.80;;;15.20;99.90;;;;;;4979183;28;20494;-94
2021/07/04 06:05:41;;;;;;;7.20;5.03;;;15.20;99.90;;;;;;4962238;28;20035;-94
2021/07/04 06:08:08;;;;;;;7.20;4.72;;;15.20;99.90;;;;;;4961792;28;20062;-93
2021/07/04 06:10:34;;;;;;;7.63;4.70;;;15.30;99.90;;;;;;4961637;28;20476;-94
2021/07/04 06:13:01;;;;;;;7.30;4.85;;;15.30;99.90;;;;;;4961680;28;20038;-94
2021/07/04 06:15:27;;;;;;;8.15;5.00;;;15.30;99.90;;;;;;4978094;28;20492;-94
2021/07/04 06:17:53;;;;;;;7.57;5.20;;;15.40;99.90;;;;;;4961291;28;20125;-94
2021/07/04 06:20:20;;;;;;;6.78;4.65;;;15.40;99.90;;;;;;4961137;28;20078;-94
2021/07/04 06:22:47;;;;;;;6.70;4.30;;;15.50;99.90;;;;;;4961337;28;20103;-93
2021/07/04 06:25:15;;;;;;;8.68;4.97;;;15.60;99.90;;;;;;4978488;28;20037;-94
2021/07/04 06:27:41;;;;;;;6.47;4.40;;;15.60;99.90;;;;;;4961284;28;20027;-93
2021/07/04 06:30:09;;;;;;;5.90;4.88;;;15.70;99.90;;;;;;4961283;28;20370;-94
2021/07/04 06:32:36;;;;;;;8.43;5.00;;;15.80;99.90;;;;;;4960874;28;20033;-94
2021/07/04 06:35:03;;;;;;;7.43;4.97;;;15.80;99.90;;;;;;4961459;28;20026;-94
2021/07/04 06:37:29;;;;;;;7.47;4.97;;;15.80;99.90;;;;;;4978067;28;20040;-94
2021/07/04 06:39:55;;;;;;;10.73;5.60;;;15.90;99.90;;;;;;4978372;28;20081;-93
2021/07/04 06:42:21;;;;;;;7.40;5.20;;;16.00;99.90;;;;;;4978510;28;20034;-93
2021/07/04 06:44:46;;;;;;;6.50;5.13;;;16.00;99.90;;;;;;4960778;28;20046;-93
2021/07/04 06:47:12;;;;;;;10.32;4.90;;;16.00;99.90;;;;;;4963590;28;20134;-93
2021/07/04 06:49:38;;;;;;;10.70;4.88;;;16.10;99.90;;;;;;4961953;28;20057;-93
2021/07/04 06:52:04;;;;;;;12.77;6.05;;;16.20;99.90;;;;;;4960463;28;20029;-93
2021/07/04 06:54:29;;;;;;;9.25;5.53;;;16.30;99.90;;;;;;4977626;28;20101;-93
2021/07/04 06:56:55;;;;;;;8.32;5.95;;;16.30;99.90;;;;;;4960168;28;20038;-93
2021/07/04 06:59:21;;;;;;;10.45;5.72;;;16.40;99.90;;;;;;4960164;28;20027;-93
2021/07/04 07:01:46;;;;;;;8.85;6.22;;;16.40;99.90;;;;;;4960098;28;20029;-94
2021/07/04 07:04:13;;;;;;;10.57;6.38;;;16.50;99.90;;;;;;4977628;28;20031;-94
2021/07/04 07:06:40;;;;;;;9.40;5.93;;;16.60;99.90;;;;;;4960766;28;20038;-93
2021/07/04 07:09:05;;;;;;;11.05;6.60;;;16.70;99.90;;;;;;4960421;28;20022;-93
2021/07/04 07:11:31;;;;;;;8.55;5.97;;;16.80;99.90;;;;;;4960131;28;20042;-94
2021/07/04 07:13:57;;;;;;;7.80;6.20;;;16.90;99.90;;;;;;4960176;28;20581;-94
2021/07/04 07:16:23;;;;;;;8.68;6.05;;;17.00;99.90;;;;;;4960963;28;20038;-94
2021/07/04 07:18:49;;;;;;;9.25;6.07;;;17.10;99.90;;;;;;4961233;28;20037;-93
2021/07/04 07:21:14;;;;;;;7.15;5.53;;;17.30;99.90;;;;;;4978035;28;20027;-93
2021/07/04 07:23:40;;;;;;;11.23;6.43;;;17.40;99.90;;;;;;4961390;28;20431;-93
2021/07/04 07:26:06;;;;;;;9.63;6.28;;;17.50;99.90;;;;;;4962480;28;20030;-92
2021/07/04 07:28:32;;;;;;;10.70;6.60;;;17.50;99.90;;;;;;4976233;28;20034;-94
2021/07/04 07:30:57;;;;;;;11.20;6.50;;;17.60;99.90;;;;;;4977743;28;20041;-93
2021/07/04 07:33:23;;;;;;;11.18;6.25;;;17.60;99.90;;;;;;4980355;28;20374;-93
2021/07/04 07:35:51;;;;;;;10.38;6.32;;;17.50;99.90;;;;;;4982761;28;20030;-93
2021/07/04 07:38:18;;;;;;;10.70;6.47;;;17.60;99.90;;;;;;4983735;28;20009;-92
2021/07/04 07:40:43;;;;;;;12.40;6.95;;;17.50;99.90;;;;;;4982264;28;20023;-93
2021/07/04 07:43:09;;;;;;;11.98;6.88;;;17.40;99.90;;;;;;4982468;28;20031;-93
2021/07/04 07:45:35;;;;;;;11.63;7.15;;;17.40;99.90;;;;;;4971180;28;20041;-93
2021/07/04 07:48:01;;;;;;;12.07;7.22;;;17.40;99.90;;;;;;4970922;28;20031;-92
2021/07/04 07:50:27;;;;;;;12.02;6.97;;;17.40;99.90;;;;;;4985486;28;20050;-93
2021/07/04 07:52:53;;;;;;;10.50;7.47;;;17.50;99.90;;;;;;4966081;28;20118;-92
2021/07/04 07:55:18;;;;;;;9.35;7.57;;;17.50;99.90;;;;;;4964424;28;20042;-93
2021/07/04 07:57:44;;;;;;;10.77;7.82;;;17.50;99.90;;;;;;4976663;28;20085;-93
2021/07/04 08:00:13;;;;;;;11.40;8.30;;;17.50;99.90;;;;;;4959160;28;20074;-92
2021/07/04 08:02:39;;;;;;;12.80;8.13;;;17.50;99.90;;;;;;4959317;28;20026;-93
2021/07/04 08:05:05;;;;;;;12.32;7.63;;;17.50;99.90;;;;;;4959171;28;20045;-93
2021/07/04 08:07:31;;;;;;;11.35;7.88;;;17.40;99.90;;;;;;4959083;28;20105;-92
2021/07/04 08:09:56;;;;;;;13.80;8.88;;;17.50;99.90;;;;;;4959292;28;20078;-91
2021/07/04 08:12:22;;;;;;;12.18;9.23;;;17.50;99.90;;;;;;4959091;28;20039;-91
2021/07/04 08:14:48;;;;;;;11.65;8.05;;;17.50;99.90;;;;;;4958522;28;20049;-92
2021/07/04 08:17:13;;;;;;;10.90;8.77;;;17.50;99.90;;;;;;4958827;28;20129;-92
2021/07/04 08:19:39;;;;;;;14.25;8.77;;;17.60;99.90;;;;;;4959264;28;20027;-92
2021/07/04 08:22:05;;;;;;;15.18;8.93;;;17.70;99.90;;;;;;4959689;28;20058;-92
2021/07/04 08:24:31;;;;;;;12.60;8.52;;;17.70;99.90;;;;;;4959499;28;20027;-92
2021/07/04 08:26:57;;;;;;;13.27;8.63;;;17.80;99.90;;;;;;4959056;28;20054;-93
2021/07/04 08:29:22;;;;;;;17.98;9.02;;;17.90;99.90;;;;;;4959237;28;20033;-92
2021/07/04 08:31:48;;;;;;;12.95;8.80;;;18.00;99.90;;;;;;4959088;28;20030;-92
2021/07/04 08:34:14;;;;;;;14.45;7.68;;;18.10;99.90;;;;;;4959814;28;20090;-93
2021/07/04 08:36:40;;;;;;;12.68;8.15;;;18.10;99.90;;;;;;4959116;28;20101;-94
2021/07/04 08:39:06;;;;;;;12.73;8.23;;;18.30;99.90;;;;;;4958685;28;20027;-92
2021/07/04 08:41:32;;;;;;;9.32;8.18;;;18.30;99.90;;;;;;4958513;28;20505;-92
2021/07/04 08:44:04;;;;;;;13.27;8.38;;;18.40;99.90;;;;;;4958708;28;20054;-92
2021/07/04 08:46:29;;;;;;;10.93;9.07;;;18.40;99.90;;;;;;4958762;28;20035;-92
2021/07/04 08:48:55;;;;;;;12.02;8.95;;;18.40;99.90;;;;;;4958643;28;20051;-92
2021/07/04 08:51:21;;;;;;;13.90;9.65;;;18.40;99.90;;;;;;4958446;28;20037;-92
2021/07/04 08:53:46;;;;;;;15.35;10.02;;;18.40;99.90;;;;;;4957965;28;20175;-92
2021/07/04 08:56:13;;;;;;;10.27;7.65;;;18.40;99.90;;;;;;4958168;28;20030;-93
2021/07/04 08:58:39;;;;;;;10.85;7.82;;;18.40;99.90;;;;;;4958412;28;20037;-93
2021/07/04 09:01:22;;;;;;;10.68;7.10;;;18.40;99.90;;;;;;4958152;28;20026;-93
2021/07/04 09:03:51;;;;;;;8.85;7.13;;;18.40;99.90;;;;;;4975555;28;20034;-92
2021/07/04 09:06:36;;;;;;;8.18;6.05;;;18.40;99.90;;;;;;4958180;28;20035;-92
2021/07/04 09:09:17;;;;;;;7.85;6.45;;;18.40;99.90;;;;;;4975109;28;20026;-92
2021/07/04 09:12:01;;;;;;;7.78;5.43;;;18.50;99.90;;;;;;4957986;28;20031;-91
2021/07/04 09:14:39;;;;;;;7.63;5.78;;;18.50;99.90;;;;;;4958222;28;20046;-92
2021/07/04 09:17:11;;;;;;;10.63;6.22;;;18.80;99.90;;;;;;4975086;28;20042;-92
2021/07/04 09:19:51;;;;;;;6.10;5.20;;;19.00;99.90;;;;;;4975089;28;20046;-91
2021/07/04 09:22:17;;;;;;;7.47;6.20;;;19.10;99.90;;;;;;4957815;28;20089;-91
2021/07/04 09:24:43;;;;;;;6.75;5.55;;;19.20;99.90;;;;;;4957667;28;20031;-93
2021/07/04 09:27:14;;;;;;;5.85;5.25;;;19.30;99.90;;;;;;4958087;28;20058;-92
2021/07/04 09:29:46;;;;;;;7.63;4.18;;;19.30;99.90;;;;;;4974999;28;20031;-92
2021/07/04 09:32:26;;;;;;;6.97;4.55;;;19.30;99.90;;;;;;4975356;28;20035;-92
2021/07/04 09:35:12;;;;;;;6.43;4.50;;;19.30;99.90;;;;;;4975210;28;20035;-92
2021/07/04 09:37:42;;;;;;;8.15;3.80;;;19.20;99.90;;;;;;4974591;28;20050;-92
2021/07/04 09:40:25;;;;;;;7.10;3.15;;;19.20;99.90;;;;;;4957620;28;20548;-91
2021/07/04 09:42:59;;;;;;;3.83;2.92;;;19.20;99.90;;;;;;4957982;28;20113;-92
2021/07/04 09:45:39;;;;;;;3.85;2.63;;;19.30;99.90;;;;;;4957761;28;20108;-92
2021/07/04 09:48:05;;;;;;;3.30;2.37;;;19.30;99.90;;;;;;4957731;28;20121;-92
2021/07/04 09:50:38;;;;;;;2.30;2.10;;;19.40;99.90;;;;;;4974786;28;20453;-93
2021/07/04 09:53:04;;;;;;;2.30;2.00;;;19.50;99.90;;;;;;4975537;28;20031;-94
2021/07/04 09:55:31;;;;;;;2.95;2.13;;;19.60;99.90;;;;;;4975424;28;20071;-94
2021/07/04 09:58:11;;;;;;;5.50;2.42;;;19.80;99.90;;;;;;4975404;28;20058;-93
2021/07/04 10:00:43;;;;;;;3.80;2.78;;;19.90;99.90;;;;;;4975184;28;20050;-93
2021/07/04 10:03:18;;;;;;;4.38;2.38;;;19.90;99.90;;;;;;4958289;28;20027;-93
2021/07/04 10:05:56;;;;;;;3.47;2.58;;;19.90;99.90;;;;;;4957744;28;20034;-92
2021/07/04 10:08:27;;;;;;;4.28;2.40;;;19.90;99.90;;;;;;4957667;28;20039;-93
2021/07/04 10:11:14;;;;;;;3.33;2.33;;;19.90;99.90;;;;;;4957597;28;20023;-93
2021/07/04 10:13:42;;;;;;;3.70;2.40;;;19.90;99.90;;;;;;4957599;28;20121;-93
2021/07/04 10:16:13;;;;;;;8.48;2.42;;;19.80;99.90;;;;;;4957558;28;20051;-92
2021/07/04 10:18:42;;;;;;;4.68;2.63;;;19.90;99.90;;;;;;4957712;28;20041;-93
2021/07/04 10:21:08;;;;;;;4.60;3.05;;;20.10;99.90;;;;;;4957472;28;20552;-93
2021/07/04 10:23:34;;;;;;;3.13;2.63;;;20.20;99.90;;;;;;4958646;28;20101;-95
2021/07/04 10:26:01;;;;;;;4.80;2.70;;;20.30;99.90;;;;;;4978527;28;20106;-93
2021/07/04 10:28:36;;;;;;;5.40;2.67;;;20.30;99.90;;;;;;4961406;28;20031;-93
2021/07/04 10:31:07;;;;;;;6.78;2.53;;;20.20;99.90;;;;;;4978317;28;20026;-93
2021/07/04 10:33:33;;;;;;;4.82;2.83;;;20.20;99.90;;;;;;4960823;28;20026;-93
2021/07/04 10:36:18;;;;;;;6.40;3.42;;;20.10;99.90;;;;;;4960864;28;20514;-93
2021/07/04 10:38:54;;;;;;;8.50;3.30;;;20.00;99.90;;;;;;4978446;28;20110;-93
2021/07/04 10:41:27;;;;;;;7.68;3.50;;;20.00;99.90;;;;;;4960436;28;20031;-93
2021/07/04 10:43:56;;;;;;;5.78;3.10;;;20.00;99.90;;;;;;4960770;28;20523;-93
2021/07/04 10:46:41;;;;;;;5.75;2.92;;;20.20;99.90;;;;;;4978223;28;20030;-94
2021/07/04 10:49:22;;;;;;;9.13;2.88;;;20.50;99.90;;;;;;4960505;28;20018;-94
2021/07/04 10:51:58;;;;;;;7.32;3.38;;;20.90;99.90;;;;;;4961009;28;20038;-95
2021/07/04 10:54:45;;;;;;;5.38;3.13;;;21.00;99.90;;;;;;4977708;28;20031;-94
2021/07/04 10:57:21;;;;;;;4.05;3.10;;;21.00;99.90;;;;;;4960436;28;20035;-94
2021/07/04 10:59:59;;;;;;;7.97;3.45;;;20.90;99.90;;;;;;4977478;28;20498;-94
2021/07/04 11:02:45;;;;;;;4.25;3.25;;;20.80;99.90;;;;;;4960494;28;20034;-93
2021/07/04 11:05:14;;;;;;;4.30;3.30;;;20.60;99.90;;;;;;4977779;28;20089;-92
2021/07/04 11:07:52;;;;;;;8.98;3.53;;;20.50;99.90;;;;;;4977489;28;20473;-92
2021/07/04 11:10:20;;;;;;;8.55;3.50;;;20.40;99.90;;;;;;4960575;28;20043;-92
2021/07/04 11:12:46;;;;;;;7.50;3.78;;;20.40;99.90;;;;;;4977819;28;20034;-92
2021/07/04 11:15:15;;;;;;;5.80;4.07;;;20.40;99.90;;;;;;4960040;28;20059;-92
2021/07/04 11:17:56;;;;;;;6.88;3.55;;;20.50;99.90;;;;;;4960036;28;20411;-92
2021/07/04 11:20:26;;;;;;;6.55;3.38;;;20.70;99.90;;;;;;4977847;28;20042;-92
2021/07/04 11:22:59;;;;;;;4.47;2.80;;;20.90;99.90;;;;;;4960676;28;20113;-93
2021/07/04 11:25:36;;;;;;;7.10;3.00;;;21.10;99.90;;;;;;4978518;28;20050;-94
2021/07/04 11:28:19;;;;;;;6.88;2.85;;;21.30;99.90;;;;;;4978646;28;20050;-94
2021/07/04 11:31:17;;;;;;;9.40;3.33;;;21.40;99.90;;;;;;4978002;28;20207;-93
2021/07/04 11:33:48;;;;;;;4.20;2.83;;;21.30;99.90;;;;;;4962644;28;20031;-93
2021/07/04 11:36:19;;;;;;;5.75;2.65;;;21.30;99.90;;;;;;4960755;28;20042;-94
2021/07/04 11:38:57;;;;;;;5.68;3.30;;;21.30;99.90;;;;;;4964674;28;20097;-93
2021/07/04 11:41:30;;;;;;;4.85;2.78;;;21.40;99.90;;;;;;4982666;28;20018;-94
2021/07/04 11:44:02;;;;;;;4.60;2.38;;;21.40;99.90;;;;;;4982682;28;20015;-94
2021/07/04 11:46:29;;;;;;;3.55;2.53;;;21.40;99.90;;;;;;4989885;28;20058;-94
2021/07/04 11:48:56;;;;;;;4.93;3.20;;;21.40;99.80;;;;;;4970142;28;20027;-94
2021/07/04 11:51:25;;;;;;;7.97;3.38;;;21.40;99.50;;;;;;4968106;28;20066;-94
2021/07/04 11:53:54;;;;;;;3.70;2.25;;;21.30;98.90;;;;;;4965951;28;20023;-94
2021/07/04 11:56:20;;;;;;;3.83;2.88;;;21.40;98.80;;;;;;4964794;28;20039;-93
2021/07/04 11:58:46;;;;;;;3.53;2.78;;;21.40;98.60;;;;;;4959577;28;20078;-93
2021/07/04 12:01:23;;;;;;;5.10;2.58;;;21.40;98.40;;;;;;4959813;28;20030;-93
2021/07/04 12:03:54;;;;;;;5.45;2.17;;;21.60;98.50;;;;;;4959149;28;20027;-93
2021/07/04 12:06:21;;;;;;;3.13;2.20;;;21.70;98.10;;;;;;4959375;28;20026;-93
2021/07/04 12:09:04;;;;;;;2.70;2.13;;;21.70;97.70;;;;;;4959876;28;20035;-94
2021/07/04 12:11:43;;;;;;;4.13;2.13;;;21.70;97.00;;;;;;4959732;28;20061;-94
2021/07/04 12:14:24;;;;;;;4.32;2.38;;;21.50;96.90;;;;;;4959365;28;20055;-94
2021/07/04 12:16:50;;;;;;;1.70;1.60;;;21.60;97.00;;;;;;4959124;28;20037;-95
2021/07/04 12:19:31;;;;;;;2.13;1.77;;;21.70;96.40;;;;;;4959183;28;20053;-94
2021/07/04 12:21:58;;;;;;;3.28;1.80;;;21.70;95.90;;;;;;4976456;28;20037;-93
2021/07/04 12:24:31;;;;;;;3.05;2.00;;;21.70;96.00;;;;;;4959053;28;20403;-94
2021/07/04 12:26:57;;;;;;;2.60;1.73;;;21.70;95.40;;;;;;4958934;28;20117;-94
2021/07/04 12:29:23;;;;;;;2.38;1.80;;;21.70;95.30;;;;;;4959069;28;20059;-93
2021/07/04 12:31:59;;;;;;;3.75;1.65;;;21.80;95.30;;;;;;4975724;28;20031;-93
2021/07/04 12:34:25;;;;;;;2.60;1.90;;;22.00;94.90;;;;;;4959342;28;20023;-93
2021/07/04 12:36:51;;;;;;;4.30;2.03;;;22.10;94.40;;;;;;4976341;28;20069;-93
2021/07/04 12:39:16;;;;;;;2.97;1.75;;;22.20;94.00;;;;;;4958751;28;20361;-94
2021/07/04 12:41:42;;;;;;;2.78;2.10;;;22.20;94.00;;;;;;4959209;28;20031;-93
2021/07/04 12:44:14;;;;;;;4.57;2.00;;;22.30;94.10;;;;;;4958981;28;20034;-93
2021/07/04 12:46:40;;;;;;;3.10;1.85;;;22.40;94.50;;;;;;4958449;28;20042;-94
2021/07/04 12:49:12;;;;;;;3.13;1.60;;;22.40;94.00;;;;;;4959349;28;20022;-93